Terminal Aerodrome Forecast
Issued by NWS Wilmington, NC

Home | Current Version | Previous Version | Text Only | Print | Product List | Glossary On
Versions: 1 2 3 4 5 6 7 8 9 10 11 12 13 14 15 16 17 18 19 20 21 22 23
000
FTUS42 KILM 231720
TAFMYR
TAF
KMYR 231720Z 2318/2418 21007KT P6SM FEW040
     FM232100 19011KT P6SM SCT040
     FM232300 20011KT P6SM VCTS SCT040CB
     FM240400 23009KT P6SM -SHRA VCTS BKN035CB
     FM241000 26006KT P6SM VCTS BKN030CB
     FM241200 30005KT P6SM BKN030
     FM241300 26004KT P6SM -SHRA VCTS BKN030CB=

USA.gov is the U.S. government's official web portal to all federal, state and local government web resources and services.